sensor_id;sensor_type;location;lat;lon;timestamp;P1;durP1;ratioP1;P2;durP2;ratioP2
25535;SDS011;13431;51.352;6.412;2022-08-01T00:00:49;7.53;;;7.03;;
25535;SDS011;13431;51.352;6.412;2022-08-01T00:03:17;7.85;;;7.07;;
25535;SDS011;13431;51.352;6.412;2022-08-01T00:05:44;7.57;;;6.88;;
25535;SDS011;13431;51.352;6.412;2022-08-01T00:08:13;7.78;;;6.43;;
25535;SDS011;13431;51.352;6.412;2022-08-01T00:10:40;7.55;;;6.75;;
25535;SDS011;13431;51.352;6.412;2022-08-01T00:13:08;7.45;;;6.80;;
25535;SDS011;13431;51.352;6.412;2022-08-01T00:15:36;7.82;;;7.05;;
25535;SDS011;13431;51.352;6.412;2022-08-01T00:18:03;9.40;;;7.60;;
25535;SDS011;13431;51.352;6.412;2022-08-01T00:20:31;8.25;;;7.35;;
25535;SDS011;13431;51.352;6.412;2022-08-01T00:22:58;8.05;;;7.35;;
25535;SDS011;13431;51.352;6.412;2022-08-01T00:25:28;8.25;;;6.95;;
25535;SDS011;13431;51.352;6.412;2022-08-01T00:28:00;8.50;;;7.15;;
25535;SDS011;13431;51.352;6.412;2022-08-01T00:30:30;9.23;;;7.72;;
25535;SDS011;13431;51.352;6.412;2022-08-01T00:32:57;7.95;;;7.15;;
25535;SDS011;13431;51.352;6.412;2022-08-01T00:35:25;9.77;;;7.25;;
25535;SDS011;13431;51.352;6.412;2022-08-01T00:37:52;8.25;;;7.45;;
25535;SDS011;13431;51.352;6.412;2022-08-01T00:40:20;8.30;;;7.55;;
25535;SDS011;13431;51.352;6.412;2022-08-01T00:42:48;8.27;;;7.47;;
25535;SDS011;13431;51.352;6.412;2022-08-01T00:45:15;8.70;;;7.75;;
25535;SDS011;13431;51.352;6.412;2022-08-01T00:47:42;10.30;;;7.50;;
25535;SDS011;13431;51.352;6.412;2022-08-01T00:50:10;7.80;;;7.03;;
25535;SDS011;13431;51.352;6.412;2022-08-01T00:52:38;7.93;;;6.95;;
25535;SDS011;13431;51.352;6.412;2022-08-01T00:55:07;9.48;;;6.65;;
25535;SDS011;13431;51.352;6.412;2022-08-01T00:57:40;11.20;;;7.57;;
25535;SDS011;13431;51.352;6.412;2022-08-01T01:00:28;9.98;;;7.20;;
25535;SDS011;13431;51.352;6.412;2022-08-01T01:02:59;8.70;;;6.78;;
25535;SDS011;13431;51.352;6.412;2022-08-01T01:05:26;8.30;;;6.93;;
25535;SDS011;13431;51.352;6.412;2022-08-01T01:08:02;7.50;;;6.90;;
25535;SDS011;13431;51.352;6.412;2022-08-01T01:13:20;8.85;;;6.95;;
25535;SDS011;13431;51.352;6.412;2022-08-01T01:15:59;7.75;;;6.93;;
25535;SDS011;13431;51.352;6.412;2022-08-01T01:32:28;8.80;;;7.90;;
25535;SDS011;13431;51.352;6.412;2022-08-01T01:35:03;9.13;;;8.23;;
25535;SDS011;13431;51.352;6.412;2022-08-01T01:37:34;8.38;;;7.47;;
25535;SDS011;13431;51.352;6.412;2022-08-01T01:40:06;8.18;;;7.30;;
25535;SDS011;13431;51.352;6.412;2022-08-01T01:42:36;8.43;;;7.60;;
25535;SDS011;13431;51.352;6.412;2022-08-01T01:45:05;10.68;;;8.13;;
25535;SDS011;13431;51.352;6.412;2022-08-01T01:47:34;11.35;;;8.15;;
25535;SDS011;13431;51.352;6.412;2022-08-01T01:50:05;13.10;;;8.35;;
25535;SDS011;13431;51.352;6.412;2022-08-01T01:52:33;9.68;;;8.30;;
25535;SDS011;13431;51.352;6.412;2022-08-01T01:55:04;13.30;;;8.80;;
25535;SDS011;13431;51.352;6.412;2022-08-01T01:57:35;12.10;;;8.82;;
25535;SDS011;13431;51.352;6.412;2022-08-01T02:00:07;8.98;;;7.57;;
25535;SDS011;13431;51.352;6.412;2022-08-01T02:02:37;11.38;;;9.48;;
25535;SDS011;13431;51.352;6.412;2022-08-01T02:05:05;10.15;;;9.15;;
25535;SDS011;13431;51.352;6.412;2022-08-01T02:07:35;11.38;;;10.00;;
25535;SDS011;13431;51.352;6.412;2022-08-01T02:10:05;15.65;;;10.65;;
25535;SDS011;13431;51.352;6.412;2022-08-01T02:12:36;14.85;;;11.23;;
25535;SDS011;13431;51.352;6.412;2022-08-01T02:15:06;13.88;;;10.93;;
25535;SDS011;13431;51.352;6.412;2022-08-01T02:17:37;14.48;;;11.48;;
25535;SDS011;13431;51.352;6.412;2022-08-01T02:20:08;14.45;;;11.30;;
25535;SDS011;13431;51.352;6.412;2022-08-01T02:22:37;13.77;;;11.13;;
25535;SDS011;13431;51.352;6.412;2022-08-01T02:25:29;14.48;;;12.18;;
25535;SDS011;13431;51.352;6.412;2022-08-01T02:28:15;16.75;;;13.15;;
25535;SDS011;13431;51.352;6.412;2022-08-01T02:30:56;16.67;;;12.38;;
25535;SDS011;13431;51.352;6.412;2022-08-01T02:36:07;15.50;;;13.10;;
25535;SDS011;13431;51.352;6.412;2022-08-01T02:38:55;15.65;;;12.32;;
25535;SDS011;13431;51.352;6.412;2022-08-01T02:41:26;15.30;;;12.93;;
25535;SDS011;13431;51.352;6.412;2022-08-01T02:43:56;20.40;;;13.77;;
25535;SDS011;13431;51.352;6.412;2022-08-01T02:46:40;18.20;;;12.90;;
25535;SDS011;13431;51.352;6.412;2022-08-01T02:49:20;18.45;;;15.85;;
25535;SDS011;13431;51.352;6.412;2022-08-01T02:51:51;20.55;;;16.00;;
25535;SDS011;13431;51.352;6.412;2022-08-01T02:54:21;17.38;;;13.00;;
25535;SDS011;13431;51.352;6.412;2022-08-01T02:56:49;16.35;;;14.60;;
25535;SDS011;13431;51.352;6.412;2022-08-01T02:59:20;17.98;;;14.20;;
25535;SDS011;13431;51.352;6.412;2022-08-01T03:01:53;17.00;;;14.95;;
25535;SDS011;13431;51.352;6.412;2022-08-01T03:04:25;21.15;;;16.73;;
25535;SDS011;13431;51.352;6.412;2022-08-01T03:06:54;19.48;;;14.73;;
25535;SDS011;13431;51.352;6.412;2022-08-01T03:09:25;17.67;;;14.25;;
25535;SDS011;13431;51.352;6.412;2022-08-01T03:11:54;21.83;;;16.33;;
25535;SDS011;13431;51.352;6.412;2022-08-01T03:14:25;23.90;;;16.63;;
25535;SDS011;13431;51.352;6.412;2022-08-01T03:16:54;19.70;;;16.77;;
25535;SDS011;13431;51.352;6.412;2022-08-01T03:19:24;23.33;;;17.50;;
25535;SDS011;13431;51.352;6.412;2022-08-01T03:21:54;22.83;;;16.85;;
25535;SDS011;13431;51.352;6.412;2022-08-01T03:24:25;18.90;;;16.92;;
25535;SDS011;13431;51.352;6.412;2022-08-01T03:26:54;20.55;;;17.27;;
25535;SDS011;13431;51.352;6.412;2022-08-01T03:29:24;20.77;;;18.58;;
25535;SDS011;13431;51.352;6.412;2022-08-01T03:31:54;20.30;;;17.73;;
25535;SDS011;13431;51.352;6.412;2022-08-01T03:34:22;20.92;;;17.33;;
25535;SDS011;13431;51.352;6.412;2022-08-01T03:37:02;20.55;;;18.33;;
25535;SDS011;13431;51.352;6.412;2022-08-01T03:39:40;23.90;;;17.88;;
25535;SDS011;13431;51.352;6.412;2022-08-01T03:42:18;20.35;;;17.50;;
25535;SDS011;13431;51.352;6.412;2022-08-01T03:44:48;19.85;;;17.77;;
25535;SDS011;13431;51.352;6.412;2022-08-01T03:47:21;21.67;;;17.97;;
25535;SDS011;13431;51.352;6.412;2022-08-01T03:49:55;20.95;;;17.73;;
25535;SDS011;13431;51.352;6.412;2022-08-01T03:52:25;20.15;;;17.67;;
25535;SDS011;13431;51.352;6.412;2022-08-01T03:54:56;19.73;;;17.20;;
25535;SDS011;13431;51.352;6.412;2022-08-01T03:57:27;19.25;;;16.45;;
25535;SDS011;13431;51.352;6.412;2022-08-01T04:00:03;22.70;;;17.38;;
25535;SDS011;13431;51.352;6.412;2022-08-01T04:02:39;23.25;;;17.33;;
25535;SDS011;13431;51.352;6.412;2022-08-01T04:05:08;20.42;;;16.67;;
25535;SDS011;13431;51.352;6.412;2022-08-01T04:07:36;19.27;;;16.83;;
25535;SDS011;13431;51.352;6.412;2022-08-01T04:10:06;20.25;;;16.45;;
25535;SDS011;13431;51.352;6.412;2022-08-01T04:12:34;21.52;;;18.30;;
25535;SDS011;13431;51.352;6.412;2022-08-01T04:15:02;19.58;;;17.48;;
25535;SDS011;13431;51.352;6.412;2022-08-01T04:17:31;18.45;;;16.48;;
25535;SDS011;13431;51.352;6.412;2022-08-01T04:20:24;20.02;;;16.15;;
25535;SDS011;13431;51.352;6.412;2022-08-01T04:22:52;22.10;;;17.23;;
25535;SDS011;13431;51.352;6.412;2022-08-01T04:25:21;20.23;;;17.02;;
25535;SDS011;13431;51.352;6.412;2022-08-01T04:28:01;19.17;;;17.17;;
25535;SDS011;13431;51.352;6.412;2022-08-01T04:30:34;23.48;;;17.88;;
25535;SDS011;13431;51.352;6.412;2022-08-01T04:33:04;21.38;;;16.65;;
25535;SDS011;13431;51.352;6.412;2022-08-01T04:35:34;20.42;;;17.30;;
25535;SDS011;13431;51.352;6.412;2022-08-01T04:38:25;18.45;;;16.50;;
25535;SDS011;13431;51.352;6.412;2022-08-01T04:40:55;25.48;;;17.38;;
25535;SDS011;13431;51.352;6.412;2022-08-01T04:43:24;19.73;;;17.67;;
25535;SDS011;13431;51.352;6.412;2022-08-01T04:45:51;22.30;;;17.38;;
25535;SDS011;13431;51.352;6.412;2022-08-01T04:48:20;22.38;;;18.45;;
25535;SDS011;13431;51.352;6.412;2022-08-01T04:50:51;24.42;;;18.33;;
25535;SDS011;13431;51.352;6.412;2022-08-01T04:53:19;20.45;;;17.15;;
25535;SDS011;13431;51.352;6.412;2022-08-01T04:55:48;23.42;;;18.60;;
25535;SDS011;13431;51.352;6.412;2022-08-01T04:58:16;20.80;;;16.77;;
25535;SDS011;13431;51.352;6.412;2022-08-01T05:00:45;20.08;;;17.25;;
25535;SDS011;13431;51.352;6.412;2022-08-01T05:03:13;23.30;;;17.13;;
25535;SDS011;13431;51.352;6.412;2022-08-01T05:05:40;22.23;;;18.10;;
25535;SDS011;13431;51.352;6.412;2022-08-01T05:08:08;23.90;;;17.80;;
25535;SDS011;13431;51.352;6.412;2022-08-01T05:10:36;20.40;;;16.88;;
25535;SDS011;13431;51.352;6.412;2022-08-01T05:13:04;21.67;;;17.90;;
25535;SDS011;13431;51.352;6.412;2022-08-01T05:15:34;21.17;;;17.98;;
25535;SDS011;13431;51.352;6.412;2022-08-01T05:18:03;20.42;;;17.02;;
25535;SDS011;13431;51.352;6.412;2022-08-01T05:20:33;18.23;;;15.75;;
25535;SDS011;13431;51.352;6.412;2022-08-01T05:23:00;21.63;;;17.25;;
25535;SDS011;13431;51.352;6.412;2022-08-01T05:25:28;19.77;;;16.80;;
25535;SDS011;13431;51.352;6.412;2022-08-01T05:28:16;19.75;;;16.70;;
25535;SDS011;13431;51.352;6.412;2022-08-01T05:30:45;20.95;;;17.08;;
25535;SDS011;13431;51.352;6.412;2022-08-01T05:33:12;17.23;;;15.43;;
25535;SDS011;13431;51.352;6.412;2022-08-01T05:35:39;18.38;;;15.95;;
25535;SDS011;13431;51.352;6.412;2022-08-01T05:38:15;22.00;;;15.65;;
25535;SDS011;13431;51.352;6.412;2022-08-01T05:40:42;15.85;;;14.30;;
25535;SDS011;13431;51.352;6.412;2022-08-01T05:43:10;20.00;;;15.55;;
25535;SDS011;13431;51.352;6.412;2022-08-01T05:45:37;15.60;;;13.98;;
25535;SDS011;13431;51.352;6.412;2022-08-01T05:48:05;16.33;;;14.63;;
25535;SDS011;13431;51.352;6.412;2022-08-01T05:50:32;15.65;;;14.10;;
25535;SDS011;13431;51.352;6.412;2022-08-01T05:53:00;16.27;;;14.68;;
25535;SDS011;13431;51.352;6.412;2022-08-01T05:55:30;16.00;;;14.40;;
25535;SDS011;13431;51.352;6.412;2022-08-01T05:58:01;15.10;;;13.52;;
25535;SDS011;13431;51.352;6.412;2022-08-01T06:00:28;14.77;;;13.40;;
25535;SDS011;13431;51.352;6.412;2022-08-01T06:02:56;15.93;;;14.32;;
25535;SDS011;13431;51.352;6.412;2022-08-01T06:05:23;14.20;;;12.88;;
25535;SDS011;13431;51.352;6.412;2022-08-01T06:07:51;12.77;;;11.43;;
25535;SDS011;13431;51.352;6.412;2022-08-01T06:10:18;12.52;;;11.35;;
25535;SDS011;13431;51.352;6.412;2022-08-01T06:12:46;11.23;;;10.13;;
25535;SDS011;13431;51.352;6.412;2022-08-01T06:15:13;10.85;;;9.90;;
25535;SDS011;13431;51.352;6.412;2022-08-01T06:17:40;10.48;;;9.45;;
25535;SDS011;13431;51.352;6.412;2022-08-01T06:20:08;10.88;;;9.98;;
25535;SDS011;13431;51.352;6.412;2022-08-01T06:22:36;12.13;;;10.93;;
25535;SDS011;13431;51.352;6.412;2022-08-01T06:25:03;10.80;;;9.80;;
25535;SDS011;13431;51.352;6.412;2022-08-01T06:27:33;11.18;;;10.18;;
25535;SDS011;13431;51.352;6.412;2022-08-01T06:30:02;9.85;;;9.05;;
25535;SDS011;13431;51.352;6.412;2022-08-01T06:32:30;9.20;;;8.30;;
25535;SDS011;13431;51.352;6.412;2022-08-01T06:34:58;9.82;;;8.93;;
25535;SDS011;13431;51.352;6.412;2022-08-01T06:37:29;8.77;;;8.02;;
25535;SDS011;13431;51.352;6.412;2022-08-01T06:40:00;8.25;;;7.55;;
25535;SDS011;13431;51.352;6.412;2022-08-01T06:42:28;8.27;;;7.57;;
25535;SDS011;13431;51.352;6.412;2022-08-01T06:44:58;8.02;;;7.22;;
25535;SDS011;13431;51.352;6.412;2022-08-01T06:47:25;7.28;;;6.57;;
25535;SDS011;13431;51.352;6.412;2022-08-01T06:49:53;6.70;;;6.10;;
25535;SDS011;13431;51.352;6.412;2022-08-01T06:52:20;7.40;;;5.97;;
25535;SDS011;13431;51.352;6.412;2022-08-01T06:54:47;7.60;;;6.82;;
25535;SDS011;13431;51.352;6.412;2022-08-01T06:57:15;6.95;;;6.35;;
25535;SDS011;13431;51.352;6.412;2022-08-01T06:59:42;6.55;;;5.95;;
25535;SDS011;13431;51.352;6.412;2022-08-01T07:02:20;6.28;;;5.68;;
25535;SDS011;13431;51.352;6.412;2022-08-01T07:04:47;6.43;;;5.82;;
25535;SDS011;13431;51.352;6.412;2022-08-01T07:07:15;6.80;;;6.05;;
25535;SDS011;13431;51.352;6.412;2022-08-01T07:09:42;5.97;;;5.47;;
25535;SDS011;13431;51.352;6.412;2022-08-01T07:12:10;8.48;;;6.07;;
25535;SDS011;13431;51.352;6.412;2022-08-01T07:14:38;5.97;;;5.38;;
25535;SDS011;13431;51.352;6.412;2022-08-01T07:17:05;6.35;;;5.75;;
25535;SDS011;13431;51.352;6.412;2022-08-01T07:19:32;6.53;;;5.82;;
25535;SDS011;13431;51.352;6.412;2022-08-01T07:22:04;7.40;;;5.07;;
25535;SDS011;13431;51.352;6.412;2022-08-01T07:24:32;6.07;;;5.57;;
25535;SDS011;13431;51.352;6.412;2022-08-01T07:27:01;5.50;;;5.00;;
25535;SDS011;13431;51.352;6.412;2022-08-01T07:29:49;5.38;;;4.88;;
25535;SDS011;13431;51.352;6.412;2022-08-01T07:32:19;6.13;;;5.53;;
25535;SDS011;13431;51.352;6.412;2022-08-01T07:34:47;6.25;;;5.65;;
25535;SDS011;13431;51.352;6.412;2022-08-01T07:37:14;6.15;;;5.63;;
25535;SDS011;13431;51.352;6.412;2022-08-01T07:39:41;7.30;;;6.35;;
25535;SDS011;13431;51.352;6.412;2022-08-01T07:42:09;6.95;;;5.80;;
25535;SDS011;13431;51.352;6.412;2022-08-01T07:44:37;6.75;;;6.15;;
25535;SDS011;13431;51.352;6.412;2022-08-01T07:47:04;7.43;;;6.72;;
25535;SDS011;13431;51.352;6.412;2022-08-01T07:49:32;6.20;;;5.60;;
25535;SDS011;13431;51.352;6.412;2022-08-01T07:52:06;6.88;;;6.28;;
25535;SDS011;13431;51.352;6.412;2022-08-01T07:54:34;5.80;;;5.30;;
25535;SDS011;13431;51.352;6.412;2022-08-01T07:57:02;6.40;;;5.82;;
25535;SDS011;13431;51.352;6.412;2022-08-01T07:59:30;5.85;;;5.32;;
25535;SDS011;13431;51.352;6.412;2022-08-01T08:01:58;5.75;;;5.15;;
25535;SDS011;13431;51.352;6.412;2022-08-01T08:04:26;6.05;;;5.55;;
25535;SDS011;13431;51.352;6.412;2022-08-01T08:06:54;5.57;;;5.07;;
25535;SDS011;13431;51.352;6.412;2022-08-01T08:09:21;6.20;;;5.53;;
25535;SDS011;13431;51.352;6.412;2022-08-01T08:11:49;5.15;;;4.70;;
25535;SDS011;13431;51.352;6.412;2022-08-01T08:14:17;5.90;;;5.35;;
25535;SDS011;13431;51.352;6.412;2022-08-01T08:16:45;5.85;;;5.35;;
25535;SDS011;13431;51.352;6.412;2022-08-01T08:19:12;5.13;;;4.72;;
25535;SDS011;13431;51.352;6.412;2022-08-01T08:21:40;5.70;;;5.15;;
25535;SDS011;13431;51.352;6.412;2022-08-01T08:24:08;5.70;;;5.20;;
25535;SDS011;13431;51.352;6.412;2022-08-01T08:26:52;5.50;;;5.03;;
25535;SDS011;13431;51.352;6.412;2022-08-01T08:29:22;7.97;;;5.22;;
25535;SDS011;13431;51.352;6.412;2022-08-01T08:31:54;5.32;;;4.78;;
25535;SDS011;13431;51.352;6.412;2022-08-01T08:34:23;5.00;;;4.60;;
25535;SDS011;13431;51.352;6.412;2022-08-01T08:36:51;5.57;;;5.07;;
25535;SDS011;13431;51.352;6.412;2022-08-01T08:39:19;5.18;;;4.68;;
25535;SDS011;13431;51.352;6.412;2022-08-01T08:41:47;5.35;;;4.40;;
25535;SDS011;13431;51.352;6.412;2022-08-01T08:44:16;4.22;;;3.92;;
25535;SDS011;13431;51.352;6.412;2022-08-01T08:46:45;5.15;;;4.75;;
25535;SDS011;13431;51.352;6.412;2022-08-01T08:49:19;4.07;;;3.78;;
25535;SDS011;13431;51.352;6.412;2022-08-01T08:51:49;4.03;;;3.70;;
25535;SDS011;13431;51.352;6.412;2022-08-01T08:54:19;4.13;;;3.83;;
25535;SDS011;13431;51.352;6.412;2022-08-01T08:56:57;4.30;;;3.97;;
25535;SDS011;13431;51.352;6.412;2022-08-01T08:59:26;4.57;;;4.18;;
25535;SDS011;13431;51.352;6.412;2022-08-01T09:01:55;5.22;;;4.75;;
25535;SDS011;13431;51.352;6.412;2022-08-01T09:04:24;4.78;;;4.38;;
25535;SDS011;13431;51.352;6.412;2022-08-01T09:06:53;4.32;;;3.97;;
25535;SDS011;13431;51.352;6.412;2022-08-01T09:09:22;5.07;;;4.50;;
25535;SDS011;13431;51.352;6.412;2022-08-01T09:11:50;4.95;;;4.55;;
25535;SDS011;13431;51.352;6.412;2022-08-01T09:14:32;4.80;;;4.25;;
25535;SDS011;13431;51.352;6.412;2022-08-01T09:17:05;5.07;;;4.68;;
25535;SDS011;13431;51.352;6.412;2022-08-01T09:19:41;4.85;;;4.55;;
25535;SDS011;13431;51.352;6.412;2022-08-01T09:22:11;5.25;;;4.85;;
25535;SDS011;13431;51.352;6.412;2022-08-01T09:24:41;5.80;;;5.22;;
25535;SDS011;13431;51.352;6.412;2022-08-01T09:27:19;4.80;;;4.40;;
25535;SDS011;13431;51.352;6.412;2022-08-01T09:29:49;3.80;;;3.50;;
25535;SDS011;13431;51.352;6.412;2022-08-01T09:32:30;3.88;;;3.58;;
25535;SDS011;13431;51.352;6.412;2022-08-01T09:38:18;3.33;;;3.05;;
25535;SDS011;13431;51.352;6.412;2022-08-01T09:43:15;3.30;;;3.03;;
25535;SDS011;13431;51.352;6.412;2022-08-01T09:45:44;3.35;;;3.00;;
25535;SDS011;13431;51.352;6.412;2022-08-01T09:48:19;4.05;;;3.70;;
25535;SDS011;13431;51.352;6.412;2022-08-01T09:50:54;4.00;;;3.70;;
25535;SDS011;13431;51.352;6.412;2022-08-01T09:53:43;4.20;;;3.80;;
25535;SDS011;13431;51.352;6.412;2022-08-01T09:56:19;2.50;;;2.30;;
25535;SDS011;13431;51.352;6.412;2022-08-01T09:58:49;2.95;;;2.35;;
25535;SDS011;13431;51.352;6.412;2022-08-01T10:01:25;2.60;;;2.40;;
25535;SDS011;13431;51.352;6.412;2022-08-01T10:04:08;3.15;;;2.60;;
25535;SDS011;13431;51.352;6.412;2022-08-01T10:06:47;2.75;;;2.63;;
25535;SDS011;13431;51.352;6.412;2022-08-01T10:09:29;3.00;;;2.80;;
25535;SDS011;13431;51.352;6.412;2022-08-01T10:12:06;4.22;;;3.15;;
25535;SDS011;13431;51.352;6.412;2022-08-01T10:14:42;3.88;;;2.78;;
25535;SDS011;13431;51.352;6.412;2022-08-01T10:17:16;2.60;;;2.40;;
25535;SDS011;13431;51.352;6.412;2022-08-01T10:19:45;2.35;;;2.25;;
25535;SDS011;13431;51.352;6.412;2022-08-01T10:22:17;4.18;;;2.65;;
25535;SDS011;13431;51.352;6.412;2022-08-01T10:24:47;2.90;;;2.70;;
25535;SDS011;13431;51.352;6.412;2022-08-01T10:27:16;2.75;;;2.55;;
25535;SDS011;13431;51.352;6.412;2022-08-01T10:29:59;1.98;;;1.75;;
25535;SDS011;13431;51.352;6.412;2022-08-01T10:32:49;2.95;;;1.60;;
25535;SDS011;13431;51.352;6.412;2022-08-01T10:35:21;1.83;;;1.73;;
25535;SDS011;13431;51.352;6.412;2022-08-01T10:38:08;1.80;;;1.70;;
25535;SDS011;13431;51.352;6.412;2022-08-01T10:40:40;1.50;;;1.40;;
25535;SDS011;13431;51.352;6.412;2022-08-01T10:43:11;3.60;;;1.75;;
25535;SDS011;13431;51.352;6.412;2022-08-01T10:45:47;1.77;;;1.10;;
25535;SDS011;13431;51.352;6.412;2022-08-01T10:48:18;1.83;;;1.73;;
25535;SDS011;13431;51.352;6.412;2022-08-01T10:50:56;1.65;;;1.55;;
25535;SDS011;13431;51.352;6.412;2022-08-01T10:53:27;1.67;;;1.58;;
25535;SDS011;13431;51.352;6.412;2022-08-01T10:56:08;2.20;;;2.10;;
25535;SDS011;13431;51.352;6.412;2022-08-01T11:09:03;4.70;;;1.80;;
25535;SDS011;13431;51.352;6.412;2022-08-01T11:11:32;1.90;;;1.80;;
25535;SDS011;13431;51.352;6.412;2022-08-01T11:14:32;1.60;;;1.50;;
25535;SDS011;13431;51.352;6.412;2022-08-01T11:17:36;1.77;;;1.33;;
25535;SDS011;13431;51.352;6.412;2022-08-01T11:20:12;1.83;;;1.63;;
25535;SDS011;13431;51.352;6.412;2022-08-01T11:28:24;2.47;;;2.30;;
25535;SDS011;13431;51.352;6.412;2022-08-01T11:38:41;3.05;;;2.08;;
25535;SDS011;13431;51.352;6.412;2022-08-01T11:41:17;2.03;;;1.92;;
25535;SDS011;13431;51.352;6.412;2022-08-01T11:52:06;2.45;;;2.30;;
25535;SDS011;13431;51.352;6.412;2022-08-01T11:54:41;3.15;;;2.10;;
25535;SDS011;13431;51.352;6.412;2022-08-01T11:57:14;2.15;;;1.92;;
25535;SDS011;13431;51.352;6.412;2022-08-01T11:59:53;1.88;;;1.77;;
25535;SDS011;13431;51.352;6.412;2022-08-01T12:02:39;2.25;;;2.10;;
25535;SDS011;13431;51.352;6.412;2022-08-01T12:05:12;2.00;;;1.90;;
25535;SDS011;13431;51.352;6.412;2022-08-01T12:07:42;1.90;;;1.80;;
25535;SDS011;13431;51.352;6.412;2022-08-01T12:10:12;2.25;;;2.03;;
25535;SDS011;13431;51.352;6.412;2022-08-01T12:12:43;2.13;;;1.92;;
25535;SDS011;13431;51.352;6.412;2022-08-01T12:15:12;3.55;;;1.80;;
25535;SDS011;13431;51.352;6.412;2022-08-01T12:17:41;2.35;;;2.15;;
25535;SDS011;13431;51.352;6.412;2022-08-01T12:20:32;1.90;;;1.80;;
25535;SDS011;13431;51.352;6.412;2022-08-01T12:23:02;2.35;;;1.50;;
25535;SDS011;13431;51.352;6.412;2022-08-01T12:25:34;1.40;;;1.30;;
25535;SDS011;13431;51.352;6.412;2022-08-01T12:28:03;2.30;;;2.10;;
25535;SDS011;13431;51.352;6.412;2022-08-01T12:30:33;1.52;;;1.42;;
25535;SDS011;13431;51.352;6.412;2022-08-01T12:33:03;2.05;;;1.30;;
25535;SDS011;13431;51.352;6.412;2022-08-01T12:35:31;1.63;;;1.25;;
25535;SDS011;13431;51.352;6.412;2022-08-01T12:38:03;3.15;;;1.80;;
25535;SDS011;13431;51.352;6.412;2022-08-01T12:40:34;4.18;;;2.15;;
25535;SDS011;13431;51.352;6.412;2022-08-01T12:43:07;2.00;;;1.90;;
25535;SDS011;13431;51.352;6.412;2022-08-01T12:45:52;2.78;;;1.70;;
25535;SDS011;13431;51.352;6.412;2022-08-01T12:48:23;1.70;;;1.60;;
25535;SDS011;13431;51.352;6.412;2022-08-01T12:50:52;1.98;;;1.88;;
25535;SDS011;13431;51.352;6.412;2022-08-01T12:53:23;1.80;;;1.70;;
25535;SDS011;13431;51.352;6.412;2022-08-01T12:55:53;1.30;;;1.20;;
25535;SDS011;13431;51.352;6.412;2022-08-01T12:58:32;1.92;;;1.30;;
25535;SDS011;13431;51.352;6.412;2022-08-01T13:01:04;3.20;;;1.85;;
25535;SDS011;13431;51.352;6.412;2022-08-01T13:03:34;1.42;;;1.13;;
25535;SDS011;13431;51.352;6.412;2022-08-01T13:06:08;1.42;;;1.33;;
25535;SDS011;13431;51.352;6.412;2022-08-01T13:08:42;1.83;;;1.10;;
25535;SDS011;13431;51.352;6.412;2022-08-01T13:11:10;2.10;;;1.30;;
25535;SDS011;13431;51.352;6.412;2022-08-01T13:13:47;1.23;;;1.20;;
25535;SDS011;13431;51.352;6.412;2022-08-01T13:16:17;2.38;;;1.20;;
25535;SDS011;13431;51.352;6.412;2022-08-01T13:19:04;3.50;;;1.30;;
25535;SDS011;13431;51.352;6.412;2022-08-01T13:21:32;1.58;;;1.25;;
25535;SDS011;13431;51.352;6.412;2022-08-01T13:24:24;2.92;;;1.88;;
25535;SDS011;13431;51.352;6.412;2022-08-01T13:29:30;2.30;;;1.65;;
25535;SDS011;13431;51.352;6.412;2022-08-01T13:32:13;2.75;;;1.60;;
25535;SDS011;13431;51.352;6.412;2022-08-01T13:35:05;1.20;;;1.10;;
25535;SDS011;13431;51.352;6.412;2022-08-01T13:37:39;1.42;;;1.30;;
25535;SDS011;13431;51.352;6.412;2022-08-01T13:40:08;2.00;;;1.20;;
25535;SDS011;13431;51.352;6.412;2022-08-01T13:42:37;3.15;;;1.80;;
25535;SDS011;13431;51.352;6.412;2022-08-01T13:45:05;3.45;;;1.50;;
25535;SDS011;13431;51.352;6.412;2022-08-01T13:47:41;2.88;;;1.88;;
25535;SDS011;13431;51.352;6.412;2022-08-01T13:50:29;1.90;;;1.63;;
25535;SDS011;13431;51.352;6.412;2022-08-01T13:52:56;4.63;;;2.13;;
25535;SDS011;13431;51.352;6.412;2022-08-01T13:55:24;2.42;;;1.30;;
25535;SDS011;13431;51.352;6.412;2022-08-01T13:57:51;2.95;;;1.63;;
25535;SDS011;13431;51.352;6.412;2022-08-01T14:00:19;3.47;;;1.65;;
25535;SDS011;13431;51.352;6.412;2022-08-01T14:02:46;1.60;;;1.48;;
25535;SDS011;13431;51.352;6.412;2022-08-01T14:05:14;4.25;;;1.35;;
25535;SDS011;13431;51.352;6.412;2022-08-01T14:07:41;1.52;;;1.33;;
25535;SDS011;13431;51.352;6.412;2022-08-01T14:10:14;1.65;;;1.30;;
25535;SDS011;13431;51.352;6.412;2022-08-01T14:12:46;1.50;;;1.30;;
25535;SDS011;13431;51.352;6.412;2022-08-01T14:15:15;2.50;;;1.17;;
25535;SDS011;13431;51.352;6.412;2022-08-01T14:18:03;3.95;;;1.33;;
25535;SDS011;13431;51.352;6.412;2022-08-01T14:20:32;1.42;;;1.10;;
25535;SDS011;13431;51.352;6.412;2022-08-01T14:23:00;1.88;;;1.17;;
25535;SDS011;13431;51.352;6.412;2022-08-01T14:25:28;2.08;;;1.50;;
25535;SDS011;13431;51.352;6.412;2022-08-01T14:28:16;2.88;;;1.33;;
25535;SDS011;13431;51.352;6.412;2022-08-01T14:30:43;2.95;;;1.52;;
25535;SDS011;13431;51.352;6.412;2022-08-01T14:33:11;2.33;;;1.50;;
25535;SDS011;13431;51.352;6.412;2022-08-01T14:35:39;2.80;;;1.45;;
25535;SDS011;13431;51.352;6.412;2022-08-01T14:38:27;1.40;;;1.30;;
25535;SDS011;13431;51.352;6.412;2022-08-01T14:41:00;3.17;;;1.20;;
25535;SDS011;13431;51.352;6.412;2022-08-01T14:43:30;3.63;;;1.40;;
25535;SDS011;13431;51.352;6.412;2022-08-01T14:46:00;2.53;;;1.40;;
25535;SDS011;13431;51.352;6.412;2022-08-01T14:48:29;1.15;;;1.05;;
25535;SDS011;13431;51.352;6.412;2022-08-01T14:50:57;1.33;;;1.15;;
25535;SDS011;13431;51.352;6.412;2022-08-01T14:53:27;4.00;;;1.20;;
25535;SDS011;13431;51.352;6.412;2022-08-01T14:55:54;2.13;;;1.50;;
25535;SDS011;13431;51.352;6.412;2022-08-01T14:58:21;1.42;;;1.25;;
25535;SDS011;13431;51.352;6.412;2022-08-01T15:00:49;1.10;;;1.00;;
25535;SDS011;13431;51.352;6.412;2022-08-01T15:03:25;1.40;;;1.30;;
25535;SDS011;13431;51.352;6.412;2022-08-01T15:05:52;2.97;;;1.30;;
25535;SDS011;13431;51.352;6.412;2022-08-01T15:08:20;2.90;;;1.88;;
25535;SDS011;13431;51.352;6.412;2022-08-01T15:10:47;2.38;;;1.35;;
25535;SDS011;13431;51.352;6.412;2022-08-01T15:13:14;1.42;;;1.27;;
25535;SDS011;13431;51.352;6.412;2022-08-01T15:15:42;1.33;;;1.23;;
25535;SDS011;13431;51.352;6.412;2022-08-01T15:18:09;2.45;;;1.30;;
25535;SDS011;13431;51.352;6.412;2022-08-01T15:20:36;1.73;;;1.30;;
25535;SDS011;13431;51.352;6.412;2022-08-01T15:23:04;3.40;;;1.30;;
25535;SDS011;13431;51.352;6.412;2022-08-01T15:25:31;1.92;;;1.38;;
25535;SDS011;13431;51.352;6.412;2022-08-01T15:28:10;1.23;;;1.13;;
25535;SDS011;13431;51.352;6.412;2022-08-01T15:30:39;2.47;;;1.30;;
25535;SDS011;13431;51.352;6.412;2022-08-01T15:33:06;2.30;;;1.33;;
25535;SDS011;13431;51.352;6.412;2022-08-01T15:35:34;1.63;;;1.25;;
25535;SDS011;13431;51.352;6.412;2022-08-01T15:38:01;1.60;;;1.20;;
25535;SDS011;13431;51.352;6.412;2022-08-01T15:40:29;1.90;;;1.42;;
25535;SDS011;13431;51.352;6.412;2022-08-01T15:42:59;1.30;;;1.20;;
25535;SDS011;13431;51.352;6.412;2022-08-01T15:45:27;1.65;;;1.55;;
25535;SDS011;13431;51.352;6.412;2022-08-01T15:48:16;1.20;;;1.05;;
25535;SDS011;13431;51.352;6.412;2022-08-01T15:50:44;1.85;;;1.38;;
25535;SDS011;13431;51.352;6.412;2022-08-01T15:53:11;3.33;;;1.67;;
25535;SDS011;13431;51.352;6.412;2022-08-01T15:55:39;4.72;;;1.30;;
25535;SDS011;13431;51.352;6.412;2022-08-01T15:58:07;2.80;;;1.50;;
25535;SDS011;13431;51.352;6.412;2022-08-01T16:00:37;2.10;;;1.52;;
25535;SDS011;13431;51.352;6.412;2022-08-01T16:03:09;1.58;;;1.45;;
25535;SDS011;13431;51.352;6.412;2022-08-01T16:05:36;1.73;;;1.42;;